sim
Sign-in with your pilot id or email,
or register
Callsign
Passwort

Schedule Details

Flight Number: DLH2459
Departure: Tromso Airport (ENTC) at 11:25
Arrival: Munich Airport (EDDM) at 15:00
Route: Lufthansa Passenger Schedule. Enter filed route here before submitting Pirep.

Weather Information
Getting current METAR information for ENTC 200050Z 19015KT 9999 FEW013 SCT019 OVC026 06/03 Q1005 RMK WIND 2600FT 18024KT
Getting current METAR information for EDDM 200120Z VRB02KT 9999 BCFG NSC 07/07 Q1016 NOSIG

Schedule Frequency

Route Map